createdAt,value
2023-01-07T00:01:40.902Z,17.48
2023-01-07T00:04:11.252Z,17.49
2023-01-07T00:06:40.044Z,17.49
2023-01-07T00:09:11.512Z,17.48
2023-01-07T00:11:40.725Z,17.48
2023-01-07T00:14:09.413Z,17.49
2023-01-07T00:16:37.312Z,17.49
2023-01-07T00:19:05.855Z,17.50
2023-01-07T00:21:36.020Z,17.48
2023-01-07T00:24:05.445Z,17.49
2023-01-07T00:26:35.239Z,17.50
2023-01-07T00:29:02.147Z,17.49
2023-01-07T00:31:37.547Z,17.49
2023-01-07T00:34:05.143Z,17.50
2023-01-07T00:36:41.227Z,17.49
2023-01-07T00:39:21.409Z,17.49
2023-01-07T00:42:07.774Z,17.50
2023-01-07T00:44:35.410Z,17.49
2023-01-07T00:47:02.279Z,17.50
2023-01-07T00:49:29.840Z,17.50
2023-01-07T00:51:56.703Z,17.50
2023-01-07T00:54:24.529Z,17.49
2023-01-07T00:56:51.346Z,17.49
2023-01-07T00:59:18.466Z,17.50
2023-01-07T01:01:49.064Z,17.50
2023-01-07T01:04:15.968Z,17.50
2023-01-07T01:06:42.892Z,17.49
2023-01-07T01:09:09.824Z,17.49
2023-01-07T01:11:36.693Z,17.49
2023-01-07T01:14:03.620Z,17.50
2023-01-07T01:16:33.477Z,17.49
2023-01-07T01:19:00.653Z,17.49
2023-01-07T01:21:30.171Z,17.50
2023-01-07T01:23:57.009Z,17.50
2023-01-07T01:26:23.908Z,17.49
2023-01-07T01:28:53.479Z,17.50
2023-01-07T01:31:24.801Z,17.49
2023-01-07T01:33:58.947Z,17.49
2023-01-07T01:36:26.148Z,17.49
2023-01-07T01:38:57.453Z,17.49
2023-01-07T01:41:24.892Z,17.49
2023-01-07T01:43:54.003Z,17.50
2023-01-07T01:46:36.747Z,17.50
2023-01-07T01:49:17.445Z,17.50
2023-01-07T01:51:54.186Z,17.50
2023-01-07T01:54:22.339Z,17.49
2023-01-07T01:56:56.248Z,17.49
2023-01-07T01:59:28.805Z,17.49
2023-01-07T02:01:57.545Z,17.50
2023-01-07T02:04:27.156Z,17.50
2023-01-07T02:07:08.992Z,17.50
2023-01-07T02:09:38.410Z,17.49
2023-01-07T02:12:24.487Z,17.49
2023-01-07T02:15:00.641Z,17.50
2023-01-07T02:17:42.152Z,17.49
2023-01-07T02:20:23.301Z,17.50
2023-01-07T02:23:42.731Z,17.50
2023-01-07T02:26:37.170Z,17.49
2023-01-07T02:29:16.701Z,17.50
2023-01-07T02:32:09.654Z,17.49
2023-01-07T02:35:01.637Z,17.49
2023-01-07T02:37:40.468Z,17.50
2023-01-07T02:40:25.054Z,17.49
2023-01-07T02:43:02.959Z,17.50
2023-01-07T02:45:36.085Z,17.50
2023-01-07T02:48:08.251Z,17.50
2023-01-07T02:50:35.465Z,17.50
2023-01-07T02:53:02.273Z,17.50
2023-01-07T02:55:58.329Z,17.51
2023-01-07T02:59:03.625Z,17.51
2023-01-07T03:01:34.238Z,17.52
2023-01-07T03:04:38.460Z,17.50
2023-01-07T03:07:24.102Z,17.50
2023-01-07T03:10:21.637Z,17.52
2023-01-07T03:13:02.384Z,17.51
2023-01-07T03:16:02.544Z,17.50
2023-01-07T03:18:35.226Z,17.52
2023-01-07T03:21:07.704Z,17.51
2023-01-07T03:23:39.421Z,17.52
2023-01-07T03:26:07.992Z,17.52
2023-01-07T03:28:41.515Z,17.53
2023-01-07T03:31:12.647Z,17.52
2023-01-07T03:33:45.537Z,17.53
2023-01-07T03:36:16.150Z,17.52
2023-01-07T03:38:45.857Z,17.52
2023-01-07T03:41:33.093Z,17.53
2023-01-07T03:44:00.099Z,17.53
2023-01-07T03:46:27.639Z,17.52
2023-01-07T03:48:55.370Z,17.52
2023-01-07T03:51:22.866Z,17.52
2023-01-07T03:53:49.713Z,17.53
2023-01-07T03:56:16.971Z,17.52
2023-01-07T03:58:43.780Z,17.52
2023-01-07T04:01:10.805Z,17.52
2023-01-07T04:03:37.812Z,17.52
2023-01-07T04:06:05.301Z,17.52
2023-01-07T04:08:32.152Z,17.52
2023-01-07T04:10:59.272Z,17.52
2023-01-07T04:13:27.241Z,17.52
2023-01-07T04:15:54.061Z,17.53
2023-01-07T04:18:20.904Z,17.53
2023-01-07T04:20:48.647Z,17.54
2023-01-07T04:23:16.965Z,17.52
2023-01-07T04:25:49.855Z,17.53
2023-01-07T04:28:20.683Z,17.52
2023-01-07T04:30:47.661Z,17.52
2023-01-07T04:33:14.753Z,17.51
2023-01-07T04:35:41.710Z,17.52
2023-01-07T04:38:08.621Z,17.52
2023-01-07T04:40:35.574Z,17.52
2023-01-07T04:43:03.035Z,17.50
2023-01-07T04:45:30.807Z,17.51
2023-01-07T04:47:59.650Z,17.50
2023-01-07T04:50:27.549Z,17.50
2023-01-07T04:52:54.865Z,17.50
2023-01-07T04:55:22.957Z,17.50
2023-01-07T04:57:50.273Z,17.51
2023-01-07T05:00:18.061Z,17.51
2023-01-07T05:02:48.021Z,17.50
2023-01-07T05:05:15.776Z,17.50
2023-01-07T05:07:43.754Z,17.49
2023-01-07T05:10:10.587Z,17.50
2023-01-07T05:12:37.620Z,17.50
2023-01-07T05:15:07.723Z,17.50
2023-01-07T05:17:37.198Z,17.51
2023-01-07T05:20:06.690Z,17.49
2023-01-07T05:22:34.906Z,17.49
2023-01-07T05:25:02.977Z,17.49
2023-01-07T05:27:29.811Z,17.50
2023-01-07T05:29:57.926Z,17.50
2023-01-07T05:32:24.690Z,17.50
2023-01-07T05:34:52.045Z,17.50
2023-01-07T05:37:19.289Z,17.50
2023-01-07T05:39:46.167Z,17.50
2023-01-07T05:42:17.393Z,17.49
2023-01-07T05:44:44.422Z,17.49
2023-01-07T05:47:11.251Z,17.50
2023-01-07T05:49:37.999Z,17.49
2023-01-07T05:52:04.969Z,17.50
2023-01-07T05:54:31.799Z,17.48
2023-01-07T05:56:58.691Z,17.49
2023-01-07T05:59:25.463Z,17.49
2023-01-07T06:01:52.265Z,17.49
2023-01-07T06:04:19.218Z,17.49
2023-01-07T06:06:46.039Z,17.50
2023-01-07T06:09:12.857Z,17.48
2023-01-07T06:11:39.653Z,17.49
2023-01-07T06:14:06.454Z,17.48
2023-01-07T06:16:33.261Z,17.49
2023-01-07T06:19:00.065Z,17.49
2023-01-07T06:21:27.248Z,17.49
2023-01-07T06:23:54.175Z,17.49
2023-01-07T06:26:21.086Z,17.49
2023-01-07T06:28:48.105Z,17.48
2023-01-07T06:31:14.901Z,17.49
2023-01-07T06:33:41.761Z,17.49
2023-01-07T06:36:08.857Z,17.49
2023-01-07T06:38:36.115Z,17.48
2023-01-07T06:41:03.109Z,17.49
2023-01-07T06:43:30.392Z,17.49
2023-01-07T06:45:57.422Z,17.49
2023-01-07T06:48:24.237Z,17.49
2023-01-07T06:50:51.065Z,17.48
2023-01-07T06:53:17.854Z,17.48
2023-01-07T06:55:51.608Z,17.49
2023-01-07T06:58:18.958Z,17.48
2023-01-07T07:00:45.983Z,17.48
2023-01-07T07:03:12.825Z,17.48
2023-01-07T07:05:39.900Z,17.46
2023-01-07T07:08:06.756Z,17.47
2023-01-07T07:10:33.924Z,17.48
2023-01-07T07:13:00.708Z,17.47
2023-01-07T07:15:27.631Z,17.47
2023-01-07T07:17:54.481Z,17.47
2023-01-07T07:20:21.744Z,17.47
2023-01-07T07:22:49.182Z,17.47
2023-01-07T07:25:16.321Z,17.48
2023-01-07T07:27:46.624Z,17.47
2023-01-07T07:30:17.134Z,17.48
2023-01-07T07:32:44.083Z,17.47
2023-01-07T07:35:12.001Z,17.47
2023-01-07T07:37:39.642Z,17.48
2023-01-07T07:40:07.599Z,17.48
2023-01-07T07:43:09.684Z,17.47
2023-01-07T07:45:21.263Z,17.47
2023-01-07T07:47:48.078Z,17.47
2023-01-07T07:50:14.993Z,17.48
2023-01-07T07:52:41.824Z,17.46
2023-01-07T07:55:20.175Z,17.47
2023-01-07T07:57:58.316Z,17.47
2023-01-07T08:00:25.527Z,17.47
2023-01-07T08:02:52.829Z,17.47
2023-01-07T08:05:19.677Z,17.47
2023-01-07T08:07:46.538Z,17.47
2023-01-07T08:10:13.377Z,17.48
2023-01-07T08:12:40.252Z,17.47
2023-01-07T08:15:08.375Z,17.47
2023-01-07T08:17:36.780Z,17.47
2023-01-07T08:20:05.360Z,17.47
2023-01-07T08:22:33.452Z,17.46
2023-01-07T08:25:00.982Z,17.46
2023-01-07T08:27:28.506Z,17.47
2023-01-07T08:29:56.119Z,17.47
2023-01-07T08:32:23.394Z,17.47
2023-01-07T08:34:50.387Z,17.46
2023-01-07T08:37:17.469Z,17.46
2023-01-07T08:39:44.341Z,17.45
2023-01-07T08:42:11.175Z,17.46
2023-01-07T08:44:38.079Z,17.46
2023-01-07T08:47:04.935Z,17.46
2023-01-07T08:49:31.921Z,17.47
2023-01-07T08:51:58.749Z,17.43
2023-01-07T08:54:25.537Z,17.39
2023-01-07T08:56:52.343Z,17.38
2023-01-07T08:59:19.162Z,17.38
2023-01-07T09:01:46.101Z,17.33
2023-01-07T09:04:13.003Z,17.32
2023-01-07T09:06:40.017Z,17.33
2023-01-07T09:09:07.132Z,17.37
2023-01-07T09:11:33.948Z,17.27
2023-01-07T09:14:00.744Z,17.06
2023-01-07T09:16:27.602Z,16.88
2023-01-07T09:18:54.476Z,16.78
